createdAt,value
2023-05-09T00:00:33.786Z,100625.56
2023-05-09T00:03:02.569Z,100621.80
2023-05-09T00:05:30.032Z,100620.84
2023-05-09T00:07:57.175Z,100621.96
2023-05-09T00:10:27.409Z,100618.64
2023-05-09T00:12:54.587Z,100620.86
2023-05-09T00:15:21.702Z,100617.24
2023-05-09T00:17:48.898Z,100614.73
2023-05-09T00:20:16.010Z,100615.75
2023-05-09T00:22:43.159Z,100617.45
2023-05-09T00:25:10.924Z,100618.95
2023-05-09T00:27:38.212Z,100616.03
2023-05-09T00:30:06.886Z,100615.77
2023-05-09T00:32:34.456Z,100616.07
2023-05-09T00:35:01.603Z,100621.05
2023-05-09T00:37:30.785Z,100620.31
2023-05-09T00:39:58.026Z,100618.26
2023-05-09T00:42:25.284Z,100615.31
2023-05-09T00:44:52.839Z,100614.05
2023-05-09T00:47:21.251Z,100610.17
2023-05-09T00:49:48.778Z,100613.66
2023-05-09T00:52:16.132Z,100614.07
2023-05-09T00:54:43.489Z,100618.27
2023-05-09T00:57:10.639Z,100613.41
2023-05-09T00:59:37.788Z,100612.83
2023-05-09T01:02:04.942Z,100613.02
2023-05-09T01:04:32.605Z,100615.58
2023-05-09T01:07:06.521Z,100614.75
2023-05-09T01:10:11.764Z,100617.38
2023-05-09T01:12:52.161Z,100617.56
2023-05-09T01:15:34.694Z,100615.95
2023-05-09T01:18:13.516Z,100615.70
2023-05-09T01:20:46.991Z,100619.11
2023-05-09T01:23:44.270Z,100616.94
2023-05-09T01:26:18.228Z,100616.66
2023-05-09T01:28:52.134Z,100620.08
2023-05-09T01:31:19.318Z,100619.81
2023-05-09T01:33:51.350Z,100620.35
2023-05-09T01:36:18.713Z,100622.35
2023-05-09T01:38:46.370Z,100619.67
2023-05-09T01:41:13.520Z,100620.62
2023-05-09T01:43:40.720Z,100626.42
2023-05-09T01:46:08.035Z,100625.85
2023-05-09T01:48:36.402Z,100626.80
2023-05-09T01:51:03.760Z,100627.52
2023-05-09T01:53:30.919Z,100623.20
2023-05-09T01:55:59.638Z,100622.09
2023-05-09T01:58:26.955Z,100619.27
2023-05-09T02:00:54.232Z,100622.21
2023-05-09T02:03:22.339Z,100623.05
2023-05-09T02:05:49.556Z,100619.57
2023-05-09T02:08:17.092Z,100619.39
2023-05-09T02:10:44.247Z,100615.25
2023-05-09T02:13:11.433Z,100612.48
2023-05-09T02:15:40.450Z,100616.58
2023-05-09T02:18:07.609Z,100621.22
2023-05-09T02:20:37.665Z,100621.27
2023-05-09T02:23:04.821Z,100621.63
2023-05-09T02:25:33.319Z,100620.84
2023-05-09T02:28:00.652Z,100621.58
2023-05-09T02:30:28.118Z,100618.95
2023-05-09T02:33:01.852Z,100621.43
2023-05-09T02:35:29.065Z,100619.38
2023-05-09T02:37:58.702Z,100622.10
2023-05-09T02:40:27.271Z,100621.48
2023-05-09T02:42:54.418Z,100619.66
2023-05-09T02:45:22.076Z,100620.84
2023-05-09T02:47:49.310Z,100624.45
2023-05-09T02:50:16.581Z,100622.23
2023-05-09T02:52:44.251Z,100623.34
2023-05-09T02:55:11.629Z,100622.62
2023-05-09T02:57:40.186Z,100620.24
2023-05-09T03:00:09.878Z,100622.46
2023-05-09T03:02:37.508Z,100624.48
2023-05-09T03:05:06.554Z,100624.60
2023-05-09T03:07:34.627Z,100626.05
2023-05-09T03:10:02.089Z,100623.96
2023-05-09T03:12:31.190Z,100624.30
2023-05-09T03:14:58.340Z,100623.83
2023-05-09T03:17:26.013Z,100630.06
2023-05-09T03:19:53.364Z,100630.27
2023-05-09T03:22:20.823Z,100634.96
2023-05-09T03:25:00.870Z,100634.83
2023-05-09T03:27:28.127Z,100637.60
2023-05-09T03:29:55.785Z,100638.27
2023-05-09T03:32:22.961Z,100641.03
2023-05-09T03:34:51.421Z,100643.52
2023-05-09T03:37:18.776Z,100645.58
2023-05-09T03:39:46.132Z,100647.66
2023-05-09T03:42:13.627Z,100645.92
2023-05-09T03:44:41.255Z,100648.62
2023-05-09T03:47:08.405Z,100650.98
2023-05-09T03:49:38.560Z,100644.02
2023-05-09T03:52:06.091Z,100653.54
2023-05-09T03:54:33.546Z,100652.94
2023-05-09T03:57:01.418Z,100655.38
2023-05-09T03:59:28.786Z,100656.73
2023-05-09T04:01:56.367Z,100657.27
2023-05-09T04:04:25.225Z,100655.38
2023-05-09T04:06:53.306Z,100654.70
2023-05-09T04:09:20.554Z,100652.95
2023-05-09T04:11:47.911Z,100655.28
2023-05-09T04:14:15.672Z,100661.36
2023-05-09T04:16:42.868Z,100661.88
2023-05-09T04:19:10.393Z,100657.96
2023-05-09T04:21:38.379Z,100660.05
2023-05-09T04:24:06.739Z,100655.33
2023-05-09T04:26:39.335Z,100666.36
2023-05-09T04:29:09.034Z,100664.91
2023-05-09T04:31:36.671Z,100670.36
2023-05-09T04:34:04.566Z,100670.86
2023-05-09T04:36:34.196Z,100670.02
2023-05-09T04:39:01.326Z,100672.81
2023-05-09T04:41:29.089Z,100672.14
2023-05-09T04:43:56.648Z,100672.61
2023-05-09T04:46:26.149Z,100676.67
2023-05-09T04:48:53.817Z,100676.83
2023-05-09T04:51:21.072Z,100679.94
2023-05-09T04:53:48.235Z,100682.82
2023-05-09T04:56:16.511Z,100678.61
2023-05-09T04:58:44.418Z,100683.95
2023-05-09T05:01:12.061Z,100686.10
2023-05-09T05:03:39.598Z,100686.71
2023-05-09T05:06:07.566Z,100685.84
2023-05-09T05:08:35.230Z,100684.79
2023-05-09T05:11:02.890Z,100685.28
2023-05-09T05:13:30.454Z,100679.77
2023-05-09T05:15:59.919Z,100681.11
2023-05-09T05:18:27.112Z,100681.77
2023-05-09T05:20:54.478Z,100680.16
2023-05-09T05:23:21.626Z,100679.52
2023-05-09T05:25:50.206Z,100682.60
2023-05-09T05:28:17.461Z,100685.34
2023-05-09T05:30:44.815Z,100684.33
2023-05-09T05:33:11.916Z,100684.80
2023-05-09T05:35:39.325Z,100685.45
2023-05-09T05:38:06.476Z,100688.04
2023-05-09T05:40:33.830Z,100690.30
2023-05-09T05:43:03.038Z,100688.05
2023-05-09T05:45:31.634Z,100689.30
2023-05-09T05:47:59.530Z,100690.65
2023-05-09T05:50:26.736Z,100691.86
2023-05-09T05:52:54.501Z,100691.06
2023-05-09T05:55:21.858Z,100691.52
2023-05-09T05:57:49.038Z,100693.05
2023-05-09T06:00:17.103Z,100693.15
2023-05-09T06:02:46.509Z,100690.79
2023-05-09T06:05:20.192Z,100691.71
2023-05-09T06:07:47.647Z,100691.77
2023-05-09T06:10:16.279Z,100690.80
2023-05-09T06:12:45.616Z,100690.39
2023-05-09T06:15:13.235Z,100692.96
2023-05-09T06:17:43.257Z,100692.48
2023-05-09T06:20:11.018Z,100688.61
2023-05-09T06:22:38.747Z,100686.29
2023-05-09T06:25:09.480Z,100683.67
2023-05-09T06:27:38.122Z,100685.78
2023-05-09T06:30:23.739Z,100683.55
2023-05-09T06:32:53.669Z,100685.05
2023-05-09T06:35:21.124Z,100685.73
2023-05-09T06:37:48.979Z,100691.19
2023-05-09T06:40:17.888Z,100692.72
2023-05-09T06:42:45.535Z,100689.69
2023-05-09T06:45:13.560Z,100689.58
2023-05-09T06:47:41.030Z,100683.95
2023-05-09T06:50:08.990Z,100677.52
2023-05-09T06:52:36.306Z,100684.09
2023-05-09T06:55:04.085Z,100683.54
2023-05-09T06:57:31.542Z,100681.19
2023-05-09T06:59:58.680Z,100680.09
2023-05-09T07:02:26.268Z,100677.18
2023-05-09T07:04:53.528Z,100668.16
2023-05-09T07:07:20.684Z,100667.62
2023-05-09T07:09:49.335Z,100663.63
2023-05-09T07:12:20.073Z,100664.28
2023-05-09T07:14:47.342Z,100664.63
2023-05-09T07:17:22.706Z,100658.27
2023-05-09T07:19:51.305Z,100650.11
2023-05-09T07:22:18.565Z,100649.27
2023-05-09T07:24:46.726Z,100650.80
2023-05-09T07:27:14.278Z,100651.28
2023-05-09T07:29:41.412Z,100652.90
2023-05-09T07:32:09.234Z,100648.02
2023-05-09T07:34:36.649Z,100647.77
2023-05-09T07:37:03.994Z,100646.88
2023-05-09T07:39:31.235Z,100642.19
2023-05-09T07:41:58.397Z,100640.68
2023-05-09T07:44:25.543Z,100637.63
2023-05-09T07:46:52.687Z,100635.92
2023-05-09T07:49:19.834Z,100634.73
2023-05-09T07:51:46.990Z,100635.71
2023-05-09T07:54:14.401Z,100637.02
2023-05-09T07:56:41.497Z,100635.33
2023-05-09T07:59:08.754Z,100631.65
2023-05-09T08:01:35.905Z,100629.37
2023-05-09T08:04:03.126Z,100621.02
2023-05-09T08:06:30.517Z,100622.91
2023-05-09T08:08:57.670Z,100620.86
2023-05-09T08:11:24.822Z,100622.63
2023-05-09T08:13:52.383Z,100621.26
2023-05-09T08:16:19.789Z,100614.35
2023-05-09T08:18:47.098Z,100620.72
2023-05-09T08:21:14.286Z,100622.88
2023-05-09T08:23:41.611Z,100611.89
2023-05-09T08:26:08.757Z,100614.21
2023-05-09T08:28:35.813Z,100612.28
2023-05-09T08:31:03.059Z,100609.14
2023-05-09T08:33:30.935Z,100604.98
2023-05-09T08:35:58.134Z,100608.77
2023-05-09T08:38:25.378Z,100606.41
2023-05-09T08:40:52.500Z,100609.27
2023-05-09T08:43:19.651Z,100606.33
2023-05-09T08:45:48.664Z,100608.65
2023-05-09T08:48:16.614Z,100602.05
2023-05-09T08:50:44.380Z,100598.52
2023-05-09T08:53:14.610Z,100600.61
2023-05-09T08:55:41.773Z,100598.72
2023-05-09T08:58:09.786Z,100601.39
2023-05-09T09:00:38.523Z,100597.77
2023-05-09T09:03:05.804Z,100596.44
2023-05-09T09:05:41.230Z,100602.11
2023-05-09T09:08:09.781Z,100593.26
2023-05-09T09:10:36.963Z,100585.98
2023-05-09T09:13:05.249Z,100587.91
2023-05-09T09:15:37.085Z,100587.30
2023-05-09T09:18:08.270Z,100587.42
2023-05-09T09:20:37.663Z,100587.14
2023-05-09T09:23:05.931Z,100586.21
2023-05-09T09:25:33.080Z,100576.81
2023-05-09T09:28:00.128Z,100579.98
2023-05-09T09:30:27.797Z,100579.30
2023-05-09T09:32:55.295Z,100571.85
2023-05-09T09:35:22.511Z,100569.18
2023-05-09T09:37:49.660Z,100570.74
2023-05-09T09:42:59.329Z,100561.10
2023-05-09T09:45:28.527Z,100564.22
2023-05-09T09:47:55.787Z,100566.34
2023-05-09T09:50:25.776Z,100566.38
2023-05-09T09:52:53.670Z,100561.48
2023-05-09T09:55:22.288Z,100557.44
2023-05-09T09:57:49.616Z,100556.95
2023-05-09T10:00:19.030Z,100563.02
2023-05-09T10:02:53.722Z,100568.73
2023-05-09T10:05:21.441Z,100563.30
2023-05-09T10:07:59.522Z,100564.03
2023-05-09T10:10:28.535Z,100565.84
2023-05-09T10:12:57.997Z,100569.52
2023-05-09T10:15:25.920Z,100563.28
2023-05-09T10:18:01.329Z,100560.80
2023-05-09T10:20:28.808Z,100556.70
2023-05-09T10:23:01.452Z,100564.52
2023-05-09T10:25:40.106Z,100562.46
2023-05-09T10:28:16.200Z,100559.98
2023-05-09T10:31:02.069Z,100559.14
2023-05-09T10:33:38.120Z,100553.41
2023-05-09T10:36:05.588Z,100550.46
2023-05-09T10:38:32.739Z,100549.64
2023-05-09T10:40:59.886Z,100548.34
2023-05-09T10:43:27.554Z,100545.26
2023-05-09T10:45:54.695Z,100543.36
2023-05-09T10:48:21.769Z,100543.77
2023-05-09T10:50:48.905Z,100548.73
2023-05-09T10:53:18.101Z,100540.19
2023-05-09T10:55:55.712Z,100539.05
2023-05-09T10:58:25.212Z,100540.48
2023-05-09T11:00:54.602Z,100536.35
2023-05-09T11:03:23.768Z,100534.92
2023-05-09T11:05:55.990Z,100534.24
2023-05-09T11:08:25.421Z,100534.73
2023-05-09T11:10:56.538Z,100540.59
2023-05-09T11:13:31.002Z,100537.95
2023-05-09T11:16:01.780Z,100536.16
2023-05-09T11:18:29.564Z,100528.85
2023-05-09T11:20:56.820Z,100524.80
2023-05-09T11:23:27.872Z,100523.65
2023-05-09T11:25:55.119Z,100519.58
2023-05-09T11:28:31.902Z,100513.08
2023-05-09T11:31:18.462Z,100509.56
2023-05-09T11:33:47.497Z,100511.70
2023-05-09T11:36:28.170Z,100510.47
2023-05-09T11:39:06.630Z,100508.44
2023-05-09T11:41:47.258Z,100513.96
2023-05-09T11:44:18.912Z,100508.55
2023-05-09T11:46:46.980Z,100507.94
2023-05-09T11:49:14.245Z,100510.39
2023-05-09T11:51:42.215Z,100507.67
2023-05-09T11:54:10.806Z,100501.16
2023-05-09T11:56:40.311Z,100492.33
2023-05-09T11:59:07.977Z,100486.06
2023-05-09T12:01:35.129Z,100481.16
2023-05-09T12:04:02.578Z,100477.21
2023-05-09T12:06:30.355Z,100481.91
2023-05-09T12:08:58.115Z,100474.48
2023-05-09T12:11:25.582Z,100474.08
2023-05-09T12:13:53.245Z,100468.66
2023-05-09T12:16:20.762Z,100468.42
2023-05-09T12:18:49.503Z,100461.00
2023-05-09T12:21:17.590Z,100455.95
2023-05-09T12:23:45.703Z,100453.42
2023-05-09T12:26:13.097Z,100454.30
2023-05-09T12:28:40.261Z,100447.42
2023-05-09T12:31:07.535Z,100445.27
2023-05-09T12:33:35.172Z,100438.36
2023-05-09T12:36:11.277Z,100442.92
2023-05-09T12:38:39.133Z,100434.95
2023-05-09T12:41:12.961Z,100441.20
2023-05-09T12:43:49.797Z,100445.33
2023-05-09T12:46:20.711Z,100439.68
2023-05-09T12:48:48.829Z,100440.45
2023-05-09T12:51:22.837Z,100438.05
2023-05-09T12:53:50.038Z,100435.73
2023-05-09T12:56:18.866Z,100439.37
2023-05-09T12:58:55.652Z,100435.98
2023-05-09T13:01:29.258Z,100444.05
2023-05-09T13:04:03.978Z,100442.91
2023-05-09T13:06:31.156Z,100437.77
2023-05-09T13:09:02.553Z,100436.04
2023-05-09T13:11:29.884Z,100438.21
2023-05-09T13:13:57.611Z,100438.17
2023-05-09T13:16:25.109Z,100437.84
2023-05-09T13:18:52.320Z,100436.35
2023-05-09T13:21:19.675Z,100435.25
2023-05-09T13:23:46.830Z,100432.26
2023-05-09T13:26:13.984Z,100431.08
2023-05-09T13:28:41.461Z,100430.45
2023-05-09T13:31:08.726Z,100427.96
2023-05-09T13:33:35.953Z,100427.20
2023-05-09T13:36:04.129Z,100427.43
2023-05-09T13:38:32.423Z,100424.42
2023-05-09T13:41:00.334Z,100424.58
2023-05-09T13:43:27.633Z,100423.23
2023-05-09T13:45:54.807Z,100417.81
2023-05-09T13:48:22.046Z,100418.77
2023-05-09T13:50:49.808Z,100415.48
2023-05-09T13:53:16.966Z,100416.66
2023-05-09T13:55:45.834Z,100413.92
2023-05-09T13:58:13.112Z,100416.55
2023-05-09T14:00:40.280Z,100419.63
2023-05-09T14:03:07.491Z,100414.11
2023-05-09T14:05:34.784Z,100417.79
2023-05-09T14:08:01.922Z,100419.96
2023-05-09T14:10:29.395Z,100415.63
2023-05-09T14:12:57.262Z,100413.53
2023-05-09T14:15:24.504Z,100412.91
2023-05-09T14:17:51.743Z,100408.77
2023-05-09T14:20:18.934Z,100410.80
2023-05-09T14:22:46.896Z,100408.31
2023-05-09T14:25:14.357Z,100406.35
2023-05-09T14:27:41.499Z,100407.48
2023-05-09T14:30:09.383Z,100405.70
2023-05-09T14:32:37.557Z,100403.64
2023-05-09T14:35:05.343Z,100397.45
2023-05-09T14:37:33.187Z,100400.35
2023-05-09T14:40:05.705Z,100400.02
2023-05-09T14:42:33.410Z,100400.53
2023-05-09T14:45:00.580Z,100398.76
2023-05-09T14:47:27.877Z,100394.86
2023-05-09T14:49:55.601Z,100389.98
2023-05-09T14:52:22.755Z,100387.33
2023-05-09T14:54:49.913Z,100396.36
2023-05-09T14:57:17.669Z,100392.21
2023-05-09T14:59:44.822Z,100391.70
2023-05-09T15:02:12.190Z,100391.81
2023-05-09T15:04:41.586Z,100387.02
2023-05-09T15:07:09.255Z,100391.52
2023-05-09T15:09:36.400Z,100389.25
2023-05-09T15:12:03.659Z,100387.48
2023-05-09T15:14:30.915Z,100389.45
2023-05-09T15:17:01.553Z,100385.71
2023-05-09T15:19:31.900Z,100381.78
2023-05-09T15:22:00.095Z,100379.40
2023-05-09T15:24:27.416Z,100381.88
2023-05-09T15:26:54.561Z,100381.41
2023-05-09T15:29:24.385Z,100379.94
2023-05-09T15:31:52.238Z,100384.22
2023-05-09T15:34:19.398Z,100381.76
2023-05-09T15:36:46.555Z,100384.98
2023-05-09T15:39:13.705Z,100380.88
2023-05-09T15:41:40.852Z,100377.41
2023-05-09T15:44:08.524Z,100365.38
2023-05-09T15:46:35.995Z,100374.82
2023-05-09T15:49:04.156Z,100378.41
2023-05-09T15:51:32.130Z,100376.17
2023-05-09T15:53:59.283Z,100372.45
2023-05-09T15:56:26.436Z,100377.31
2023-05-09T15:58:53.586Z,100374.27
2023-05-09T16:01:21.607Z,100381.18
2023-05-09T16:03:49.088Z,100375.55
2023-05-09T16:06:16.680Z,100379.35
2023-05-09T16:08:44.347Z,100383.64
2023-05-09T16:11:13.041Z,100378.99
2023-05-09T16:13:40.904Z,100376.77
2023-05-09T16:16:07.952Z,100375.94
2023-05-09T16:18:35.209Z,100373.35
2023-05-09T16:21:02.768Z,100371.98
2023-05-09T16:23:30.227Z,100368.98
2023-05-09T16:25:57.376Z,100366.09
2023-05-09T16:28:27.297Z,100365.89
2023-05-09T16:30:54.447Z,100371.52
2023-05-09T16:33:21.601Z,100370.30
2023-05-09T16:35:48.751Z,100368.96
2023-05-09T16:38:15.888Z,100371.23
2023-05-09T16:40:43.056Z,100368.75
2023-05-09T16:43:10.223Z,100368.27
2023-05-09T16:45:37.374Z,100368.70
2023-05-09T16:48:05.153Z,100364.88
2023-05-09T16:50:32.275Z,100365.98
2023-05-09T16:52:59.536Z,100367.65
2023-05-09T16:55:26.998Z,100361.31
2023-05-09T16:57:54.140Z,100371.38
2023-05-09T17:00:23.940Z,100369.05
2023-05-09T17:02:51.130Z,100373.38
2023-05-09T17:05:18.560Z,100372.47
2023-05-09T17:07:45.712Z,100375.58
2023-05-09T17:10:12.869Z,100373.64
2023-05-09T17:12:40.225Z,100374.89
2023-05-09T17:15:08.033Z,100374.13
2023-05-09T17:17:35.730Z,100374.15
2023-05-09T17:20:04.748Z,100377.23
2023-05-09T17:22:32.312Z,100379.59
2023-05-09T17:24:59.375Z,100379.62
2023-05-09T17:27:27.424Z,100378.48
2023-05-09T17:29:54.579Z,100384.48
2023-05-09T17:32:21.728Z,100383.04
2023-05-09T17:34:48.893Z,100383.91
2023-05-09T17:37:16.032Z,100386.93
2023-05-09T17:39:44.211Z,100386.35
2023-05-09T17:42:12.264Z,100386.74
2023-05-09T17:44:41.018Z,100385.44
2023-05-09T17:47:09.554Z,100388.55
2023-05-09T17:49:36.705Z,100381.27
2023-05-09T17:52:03.852Z,100382.34
2023-05-09T17:54:31.105Z,100381.81
2023-05-09T17:57:01.656Z,100386.45
2023-05-09T17:59:29.195Z,100387.73
2023-05-09T18:01:56.406Z,100388.64
2023-05-09T18:04:23.596Z,100389.70
2023-05-09T18:06:50.985Z,100387.37
2023-05-09T18:09:18.923Z,100390.44
2023-05-09T18:11:46.081Z,100387.13
2023-05-09T18:14:13.341Z,100390.86
2023-05-09T18:16:40.481Z,100393.99
2023-05-09T18:19:07.662Z,100395.76
2023-05-09T18:21:36.522Z,100395.21
2023-05-09T18:24:04.390Z,100396.77
2023-05-09T18:26:31.540Z,100396.50
2023-05-09T18:28:58.692Z,100398.27
2023-05-09T18:31:25.920Z,100399.61
2023-05-09T18:33:53.091Z,100399.71
2023-05-09T18:36:21.062Z,100401.87
2023-05-09T18:38:48.625Z,100401.92
2023-05-09T18:41:18.538Z,100400.83
2023-05-09T18:43:46.327Z,100400.84
2023-05-09T18:46:17.512Z,100400.98
2023-05-09T18:48:45.645Z,100402.04
2023-05-09T18:51:13.083Z,100401.89
2023-05-09T18:53:40.744Z,100399.02
2023-05-09T18:56:09.130Z,100400.42
2023-05-09T18:58:36.887Z,100401.79
2023-05-09T19:01:04.794Z,100402.13
2023-05-09T19:03:32.313Z,100405.14
2023-05-09T19:06:00.133Z,100400.58
2023-05-09T19:08:27.641Z,100397.20
2023-05-09T19:10:55.029Z,100399.54
2023-05-09T19:13:22.235Z,100398.52
2023-05-09T19:15:49.809Z,100395.69
2023-05-09T19:18:16.968Z,100394.00
2023-05-09T19:20:44.212Z,100395.77
2023-05-09T19:23:12.281Z,100392.62
2023-05-09T19:25:39.296Z,100396.11
2023-05-09T19:28:06.712Z,100396.85
2023-05-09T19:30:33.925Z,100398.48
2023-05-09T19:33:01.128Z,100394.12
2023-05-09T19:35:28.344Z,100390.66
2023-05-09T19:37:55.499Z,100387.19
2023-05-09T19:40:22.647Z,100381.01
2023-05-09T19:42:50.726Z,100389.36
2023-05-09T19:45:17.981Z,100392.77
2023-05-09T19:47:45.136Z,100394.31
2023-05-09T19:50:12.683Z,100391.55
2023-05-09T19:52:40.420Z,100390.36
2023-05-09T19:55:08.051Z,100388.48
2023-05-09T19:57:35.236Z,100386.09
2023-05-09T20:00:02.417Z,100384.34
2023-05-09T20:02:33.513Z,100385.59
2023-05-09T20:05:00.917Z,100384.59
2023-05-09T20:07:28.170Z,100380.05
2023-05-09T20:09:55.316Z,100386.05
2023-05-09T20:12:22.320Z,100381.06
2023-05-09T20:14:49.410Z,100379.43
2023-05-09T20:17:16.471Z,100377.67
2023-05-09T20:19:43.508Z,100373.48
2023-05-09T20:22:10.870Z,100374.27
2023-05-09T20:24:37.915Z,100373.93
2023-05-09T20:27:04.967Z,100370.30
2023-05-09T20:29:32.110Z,100372.15
2023-05-09T20:31:59.302Z,100374.54
2023-05-09T20:34:27.379Z,100371.92
2023-05-09T20:36:55.159Z,100369.19
2023-05-09T20:39:23.177Z,100369.05
2023-05-09T20:41:50.800Z,100367.61
2023-05-09T20:44:18.000Z,100366.23
2023-05-09T20:46:45.747Z,100370.14
2023-05-09T20:49:12.911Z,100364.46
2023-05-09T20:51:40.168Z,100363.48
2023-05-09T20:54:07.348Z,100360.08
2023-05-09T20:56:35.684Z,100358.30
2023-05-09T20:59:04.453Z,100358.77
2023-05-09T21:01:32.657Z,100358.88
2023-05-09T21:03:59.844Z,100359.23
2023-05-09T21:06:26.955Z,100362.38
2023-05-09T21:08:53.978Z,100366.38
2023-05-09T21:11:22.203Z,100363.36
2023-05-09T21:13:50.464Z,100363.84
2023-05-09T21:16:17.603Z,100365.81
2023-05-09T21:18:44.660Z,100359.55
2023-05-09T21:21:11.923Z,100361.50
2023-05-09T21:23:38.951Z,100358.41
2023-05-09T21:26:05.981Z,100359.44
2023-05-09T21:28:33.190Z,100354.78
2023-05-09T21:31:01.906Z,100356.72
2023-05-09T21:33:31.007Z,100353.61
2023-05-09T21:35:59.393Z,100348.77
2023-05-09T21:38:26.563Z,100347.64
2023-05-09T21:40:53.617Z,100345.06
2023-05-09T21:43:20.671Z,100341.67
2023-05-09T21:45:47.806Z,100341.51
2023-05-09T21:48:14.984Z,100339.31
2023-05-09T21:50:46.160Z,100341.06
2023-05-09T21:53:13.868Z,100339.30
2023-05-09T21:55:41.236Z,100335.73
2023-05-09T22:00:16.898Z,100337.25
2023-05-09T22:02:44.619Z,100335.04
2023-05-09T22:05:12.115Z,100334.34
2023-05-09T22:07:39.513Z,100334.53
2023-05-09T22:10:07.220Z,100331.02
2023-05-09T22:12:34.384Z,100330.41
2023-05-09T22:15:01.548Z,100332.03
2023-05-09T22:17:28.930Z,100329.34
2023-05-09T22:19:55.937Z,100328.39
2023-05-09T22:22:23.293Z,100326.95
2023-05-09T22:24:50.547Z,100327.27
2023-05-09T22:27:17.594Z,100327.52
2023-05-09T22:29:45.867Z,100323.82
2023-05-09T22:32:14.360Z,100320.89
2023-05-09T22:34:41.400Z,100321.19
2023-05-09T22:37:09.063Z,100319.75
2023-05-09T22:39:36.053Z,100319.61
2023-05-09T22:42:04.286Z,100321.44
2023-05-09T22:44:32.783Z,100318.88
2023-05-09T22:47:00.030Z,100318.90
2023-05-09T22:49:27.180Z,100317.66
2023-05-09T22:51:54.537Z,100315.75
2023-05-09T22:54:22.408Z,100314.42
2023-05-09T22:56:49.933Z,100309.36
2023-05-09T22:59:20.096Z,100312.56
2023-05-09T23:01:47.383Z,100309.27
2023-05-09T23:04:14.592Z,100310.46
2023-05-09T23:06:41.745Z,100307.91
2023-05-09T23:09:08.892Z,100306.30
2023-05-09T23:11:36.048Z,100303.84
2023-05-09T23:14:03.711Z,100301.62
2023-05-09T23:16:30.863Z,100297.40
2023-05-09T23:18:58.018Z,100294.33
2023-05-09T23:21:25.169Z,100294.67
2023-05-09T23:23:52.310Z,100292.36
2023-05-09T23:26:19.360Z,100293.31
2023-05-09T23:28:46.513Z,100288.39
2023-05-09T23:31:13.715Z,100287.41
2023-05-09T23:33:40.923Z,100286.80
2023-05-09T23:36:09.292Z,100283.64
2023-05-09T23:38:36.442Z,100283.87
2023-05-09T23:41:03.614Z,100286.95
2023-05-09T23:43:30.744Z,100282.10
2023-05-09T23:45:57.903Z,100280.75
2023-05-09T23:48:25.789Z,100281.73
2023-05-09T23:50:52.911Z,100282.56
2023-05-09T23:53:20.089Z,100281.98
2023-05-09T23:55:47.216Z,100281.44
2023-05-09T23:58:14.374Z,100281.10
